^^
MeteoGriva-Weather Station Historical Data
Daily Summary for August 19, 2020 Units:  English    Metric   Both
Daily Weekly Monthly Yearly Custom
  High: Low: Average:
Temperature: 41.5 °F 36.3 °F 38.3 °F
Dew Point: 36.3 °F 33.3 °F 35.1 °F
Humidity: 96% 78.2% 88%
Wind Speed: 3.7mph 0mph 0.2mph
Wind Gust: 10.1mph - -
Wind- - SSE
Pressure: 30.5 in 30.2 in -
Precipitation: 0 in    
Historical Graphs
 
 
Tabular Data for August 19, 2020
Time Temperature Dew Point Pressure Wind Wind Speed Wind Gust Humidity Rainfall Rate (Hourly) solar
00:04 37.4 °F 36.1 °F 30.2 in South 0.9 mph 4.9 mph 95.1% 0 in 0 W/m2
00:09 37.4 °F 36.3 °F 30.2 in South 0.7 mph 4.9 mph 96% 0 in 0 W/m2
00:14 37.4 °F 36.3 °F 30.2 in SSW 0.4 mph 4.9 mph 96% 0 in 0 W/m2
00:19 37.4 °F 36.1 °F 30.2 in South 0.2 mph 2.5 mph 95.1% 0 in 0 W/m2
00:24 37.4 °F 36.1 °F 30.2 in South 1.2 mph 4.9 mph 95% 0 in 0 W/m2
00:29 37.4 °F 36 °F 30.2 in SSW 0.5 mph 4.9 mph 94.7% 0 in 0 W/m2
00:34 37.4 °F 36 °F 30.2 in South 0.3 mph 2.5 mph 94.4% 0 in 0 W/m2
00:39 37.6 °F 36 °F 30.2 in South 0.7 mph 4.9 mph 93.7% 0 in 0 W/m2
00:44 37.6 °F 35.8 °F 30.2 in SSW 0.2 mph 4.9 mph 93% 0 in 0 W/m2
00:49 37.6 °F 35.8 °F 30.2 in South 0.4 mph 4.9 mph 93% 0 in 0 W/m2
00:54 37.6 °F 35.8 °F 30.2 in South 0.2 mph 4.9 mph 93% 0 in 0 W/m2
00:59 37.6 °F 35.8 °F 30.2 in Calm   2.5 mph 93% 0 in 0 W/m2
01:04 37.6 °F 35.8 °F 30.2 in Calm     93% 0 in 0 W/m2
01:09 37.6 °F 35.8 °F 30.2 in Calm     93% 0 in 0 W/m2
01:14 37.6 °F 35.8 °F 30.2 in Calm     93% 0 in 0 W/m2
01:19 37.6 °F 35.8 °F 30.2 in Calm     93% 0 in 0 W/m2
01:24 37.6 °F 35.8 °F 30.2 in Calm     93% 0 in 0 W/m2
01:29 37.6 °F 35.8 °F 30.2 in Calm     93% 0 in 0 W/m2
01:34 37.6 °F 35.8 °F 30.2 in Calm     93% 0 in 0 W/m2
01:39 37.6 °F 35.8 °F 30.2 in South 0.4 mph 4.9 mph 92.8% 0 in 0 W/m2
01:44 37.6 °F 35.4 °F 30.2 in South 0.8 mph 4.9 mph 92% 0 in 0 W/m2
01:49 37.6 °F 35.4 °F 30.2 in Calm     92% 0 in 0 W/m2
01:54 37.6 °F 35.6 °F 30.2 in Calm     92.3% 0 in 0 W/m2
01:59 37.6 °F 35.8 °F 30.2 in Calm     93% 0 in 0 W/m2
02:04 37.6 °F 35.8 °F 30.2 in Calm     93% 0 in 0 W/m2
02:09 37.6 °F 35.4 °F 30.2 in Calm     92% 0 in 0 W/m2
02:14 37.6 °F 35.2 °F 30.2 in Calm     91.4% 0 in 0 W/m2
02:19 37.8 °F 35.1 °F 30.2 in Calm     90.1% 0 in 0 W/m2
02:24 37.8 °F 34.9 °F 30.2 in SSW 0.3 mph 4.9 mph 89% 0 in 0 W/m2
02:29 37.8 °F 35.1 °F 30.2 in Calm   4.9 mph 89.9% 0 in 0 W/m2
02:34 37.8 °F 35.1 °F 30.2 in Calm     89.9% 0 in 0 W/m2
02:39 37.8 °F 35.1 °F 30.2 in Calm     89.9% 0 in 0 W/m2
02:44 37.6 °F 34.9 °F 30.2 in Calm     90% 0 in 0 W/m2
02:49 37.6 °F 34.9 °F 30.2 in Calm     89.7% 0 in 0 W/m2
02:54 37.6 °F 34.5 °F 30.2 in Calm     88.4% 0 in 0 W/m2
02:59 37.8 °F 34.9 °F 30.2 in Calm     88.8% 0 in 0 W/m2
03:04 37.8 °F 34.5 °F 30.2 in Calm     88% 0 in 0 W/m2
03:09 37.8 °F 34.7 °F 30.2 in Calm     88.7% 0 in 0 W/m2
03:14 37.6 °F 34.7 °F 30.2 in Calm     89% 0 in 0 W/m2
03:19 37.6 °F 34.7 °F 30.2 in Calm     89% 0 in 0 W/m2
03:24 37.6 °F 34.7 °F 30.2 in Calm     89.2% 0 in 0 W/m2
03:29 37.6 °F 34.7 °F 30.2 in Calm     89.2% 0 in 0 W/m2
03:34 37.6 °F 34.9 °F 30.2 in Calm     90% 0 in 0 W/m2
03:39 37.4 °F 34.7 °F 30.2 in Calm     90% 0 in 0 W/m2
03:44 37.2 °F 34.5 °F 30.2 in Calm     90.2% 0 in 0 W/m2
03:49 37.2 °F 35.1 °F 30.2 in Calm     92% 0 in 0 W/m2
03:54 37.2 °F 35.2 °F 30.2 in Calm     92.4% 0 in 0 W/m2
03:59 36.9 °F 35.4 °F 30.2 in Calm     94.4% 0 in 0 W/m2
04:04 36.7 °F 35.4 °F 30.2 in Calm     95% 0 in 0 W/m2
04:09 36.7 °F 35.4 °F 30.2 in Calm     95% 0 in 0 W/m2
04:14 36.7 °F 35.4 °F 30.2 in Calm     95% 0 in 0 W/m2
04:19 36.9 °F 35.6 °F 30.2 in Calm     95% 0 in 0 W/m2
04:24 36.7 °F 35.4 °F 30.2 in Calm     95% 0 in 0 W/m2
04:29 36.7 °F 35.6 °F 30.2 in Calm     95.9% 0 in 0 W/m2
04:34 36.7 °F 35.6 °F 30.2 in Calm     96% 0 in 0 W/m2
04:39 36.3 °F 35.2 °F 30.2 in Calm     96% 0 in 0 W/m2
04:44 36.3 °F 35.2 °F 30.2 in Calm     96% 0 in 0 W/m2
04:49 36.3 °F 35.1 °F 30.2 in Calm     95.4% 0 in 0 W/m2
04:54 36.3 °F 34.7 °F 30.2 in Calm     94% 0 in 0 W/m2
04:59 36.3 °F 35.1 °F 30.2 in Calm     95.1% 0 in 0 W/m2
05:04 36.3 °F 35.1 °F 30.2 in Calm     95.1% 0 in 0 W/m2
05:09 36.3 °F 35.1 °F 30.2 in Calm     95% 0 in 0 W/m2
05:14 36.3 °F 34.7 °F 30.2 in Calm     94% 0 in 0 W/m2
05:19 36.3 °F 34.7 °F 30.2 in Calm     94% 0 in 0 W/m2
05:24 36.3 °F 34.7 °F 30.2 in Calm     94% 0 in 0 W/m2
05:29 36.3 °F 34.5 °F 30.2 in Calm     93.6% 0 in 0 W/m2
05:34 36.3 °F 34.5 °F 30.2 in Calm     92.9% 0 in 0 W/m2
05:39 36.3 °F 34.5 °F 30.2 in Calm     93% 0 in 0 W/m2
05:44 36.3 °F 34.7 °F 30.2 in Calm     93.9% 0 in 0 W/m2
05:49 36.3 °F 34.7 °F 30.2 in Calm     94% 0 in 0 W/m2
05:54 36.3 °F 34.5 °F 30.2 in Calm     93.1% 0 in 0 W/m2
05:59 36.3 °F 34.5 °F 30.2 in Calm     93% 0 in 0 W/m2
06:04 36.3 °F 34.2 °F 30.2 in Calm     92% 0 in 0 W/m2
06:09 36.3 °F 34.2 °F 30.2 in Calm     92% 0 in 0 W/m2
06:14 36.3 °F 34.2 °F 30.2 in Calm     92% 0 in 0 W/m2
06:19 36.3 °F 34.3 °F 30.2 in Calm     92.7% 0 in 0 W/m2
06:24 36.3 °F 34.3 °F 30.2 in Calm     92.4% 0 in 0 W/m2
06:29 36.3 °F 34.2 °F 30.2 in Calm     92% 0 in 0 W/m2
06:34 36.3 °F 34.2 °F 30.2 in Calm     92% 0 in 0 W/m2
06:39 36.5 °F 34.3 °F 30.2 in Calm     92% 0 in 0 W/m2
06:44 36.5 °F 34.2 °F 30.2 in Calm     91.1% 0 in 0 W/m2
06:49 36.5 °F 34.2 °F 30.2 in Calm     91% 0 in 0 W/m2
06:54 36.5 °F 34.3 °F 30.2 in Calm     92% 0 in 0 W/m2
06:59 36.5 °F 34.3 °F 30.2 in Calm     91.6% 0 in 0 W/m2
07:04 36.5 °F 34.2 °F 30.2 in Calm     91% 0 in 0 W/m2
07:09 36.5 °F 33.6 °F 30.2 in Calm     89.2% 0 in 0 W/m2
07:14 36.5 °F 33.6 °F 30.2 in Calm     89% 0 in 0 W/m2
07:19 36.7 °F 33.8 °F 30.2 in Calm     89.2% 0 in 0 W/m2
07:24 36.9 °F 34.2 °F 30.2 in Calm     90% 0 in 0 W/m2
07:29 36.7 °F 34 °F 30.2 in Calm     90% 0 in 0 W/m2
07:34 36.7 °F 34.3 °F 30.2 in Calm     90.9% 0 in 0 W/m2
07:39 36.7 °F 34.3 °F 30.2 in Calm     91% 0 in 0 W/m2
07:44 36.7 °F 34.3 °F 30.2 in Calm     91% 0 in 0 W/m2
07:49 36.7 °F 34.2 °F 30.2 in Calm     90.6% 0 in 0 W/m2
07:54 36.7 °F 34.3 °F 30.2 in Calm     91% 0 in 0 W/m2
07:59 36.9 °F 34.3 °F 30.2 in Calm     91% 0 in 0 W/m2
08:04 36.9 °F 34.5 °F 30.2 in Calm     90.8% 0 in 0 W/m2
08:09 36.9 °F 34.3 °F 30.2 in Calm     90.4% 0 in 0 W/m2
08:14 36.7 °F 34.2 °F 30.2 in Calm     90.7% 0 in 2 W/m2
08:19 36.9 °F 34.2 °F 30.2 in Calm     90.2% 0 in 4 W/m2
08:24 36.9 °F 34.2 °F 30.2 in Calm     89.4% 0 in 5 W/m2
08:29 36.9 °F 34 °F 30.2 in Calm     89.1% 0 in 7 W/m2
08:34 36.9 °F 33.8 °F 30.2 in Calm     88.6% 0 in 7 W/m2
08:39 37.2 °F 33.8 °F 30.2 in Calm     87% 0 in 9 W/m2
08:44 37.6 °F 34.2 °F 30.2 in Calm     87.4% 0 in 11 W/m2
08:49 37.6 °F 34.2 °F 30.2 in Calm     87.8% 0 in 13 W/m2
08:54 37.6 °F 34 °F 30.2 in Calm     87% 0 in 16 W/m2
08:59 37.8 °F 34.2 °F 30.2 in Calm     87% 0 in 17 W/m2
09:04 37.8 °F 34.2 °F 30.2 in Calm     86.8% 0 in 19 W/m2
09:09 37.8 °F 34.3 °F 30.2 in Calm     87.6% 0 in 22 W/m2
09:14 37.8 °F 34.5 °F 30.2 in Calm     88% 0 in 24 W/m2
09:19 37.9 °F 34.3 °F 30.2 in Calm     86.7% 0 in 27 W/m2
09:24 38.1 °F 33.8 °F 30.2 in Calm     84.1% 0 in 30 W/m2
09:29 38.1 °F 33.3 °F 30.2 in Calm     82.4% 0 in 34 W/m2
09:34 38.3 °F 33.6 °F 30.2 in Calm     82.9% 0 in 35 W/m2
09:39 38.3 °F 34.3 °F 30.2 in Calm     85.2% 0 in 38 W/m2
09:44 38.3 °F 34.7 °F 30.2 in Calm     86.9% 0 in 41 W/m2
09:49 38.3 °F 34 °F 30.2 in Calm     84.3% 0 in 42 W/m2
09:54 38.3 °F 34.2 °F 30.2 in Calm     84.6% 0 in 46 W/m2
09:59 38.5 °F 34.2 °F 30.2 in Calm     84.3% 0 in 50 W/m2
10:04 38.5 °F 34.2 °F 30.2 in Calm     84.3% 0 in 53 W/m2
10:09 38.7 °F 34 °F 30.2 in Calm     83.2% 0 in 62 W/m2
10:14 38.7 °F 34.9 °F 30.2 in Calm     86.1% 0 in 67 W/m2
10:19 38.8 °F 35.1 °F 30.2 in Calm     86% 0 in 66 W/m2
10:24 39.2 °F 35.1 °F 30.2 in Calm     84.8% 0 in 62 W/m2
10:29 39.2 °F 34.7 °F 30.2 in Calm     83.8% 0 in 63 W/m2
10:34 39.2 °F 34.5 °F 30.2 in Calm     83.3% 0 in 69 W/m2
10:39 39.4 °F 34.7 °F 30.2 in Calm     83.3% 0 in 81 W/m2
10:44 39.9 °F 34.5 °F 30.2 in Calm     81.2% 0 in 85 W/m2
10:49 39.9 °F 34.5 °F 30.2 in Calm     80.7% 0 in 87 W/m2
10:54 39.9 °F 34.3 °F 30.2 in Calm     79.9% 0 in 88 W/m2
10:59 39.9 °F 34.2 °F 30.2 in Calm     79% 0 in 89 W/m2
11:04 40.5 °F 34.5 °F 30.2 in Calm     79% 0 in 87 W/m2
11:09 40.5 °F 34.5 °F 30.2 in Calm     79.2% 0 in 86 W/m2
11:14 40.5 °F 34.3 °F 30.2 in Calm     78.4% 0 in 82 W/m2
11:19 40.6 °F 34.5 °F 30.2 in Calm     78.4% 0 in 85 W/m2
11:24 40.6 °F 34.7 °F 30.2 in Calm     79% 0 in 85 W/m2
11:29 40.6 °F 34.7 °F 30.2 in Calm     79.2% 0 in 80 W/m2
11:34 40.5 °F 34.7 °F 30.2 in Calm     79.3% 0 in 72 W/m2
11:39 40.5 °F 34.7 °F 30.2 in Calm     80% 0 in 90 W/m2
11:44 40.3 °F 34.3 °F 30.2 in Calm     79% 0 in 93 W/m2
11:49 40.3 °F 34.3 °F 30.2 in Calm     79% 0 in 82 W/m2
11:54 40.3 °F 34.3 °F 30.2 in ENE 0.1 mph 2.5 mph 78.9% 0 in 91 W/m2
11:59 40.3 °F 34.5 °F 30.2 in Calm   2.5 mph 80% 0 in 96 W/m2
12:04 40.1 °F 34.3 °F 30.2 in Calm     79.6% 0 in 98 W/m2
12:09 40.1 °F 34.2 °F 30.2 in Calm     79% 0 in 89 W/m2
12:14 40.1 °F 34.2 °F 30.2 in Calm   2.5 mph 79% 0 in 76 W/m2
12:19 40.3 °F 34.3 °F 30.2 in Calm     79% 0 in 89 W/m2
12:24 40.1 °F 34.2 °F 30.2 in Calm     79% 0 in 112 W/m2
12:29 40.3 °F 34.3 °F 30.2 in Calm     79.3% 0 in 130 W/m2
12:34 40.3 °F 34.3 °F 30.2 in Calm     79.1% 0 in 136 W/m2
12:39 40.6 °F 34.5 °F 30.2 in Calm     78.5% 0 in 135 W/m2
12:44 41.2 °F 35.2 °F 30.2 in Calm     79% 0 in 100 W/m2
12:49 41.4 °F 35.4 °F 30.2 in Calm     79% 0 in 100 W/m2
12:54 41.4 °F 35.2 °F 30.2 in Calm     78.2% 0 in 95 W/m2
12:59 41.4 °F 35.6 °F 30.2 in Calm     79.8% 0 in 85 W/m2
13:04 40.5 °F 34.9 °F 30.2 in NNE 0.1 mph 2.5 mph 80.2% 0 in 69 W/m2
13:09 40.5 °F 35.1 °F 30.2 in Calm   2.5 mph 81% 0 in 90 W/m2
13:14 40.5 °F 35.1 °F 30.2 in NNE 0.2 mph 2.5 mph 80.9% 0 in 95 W/m2
13:19 40.5 °F 34.9 °F 30.2 in Calm     80.6% 0 in 98 W/m2
13:24 41 °F 35.2 °F 30.2 in Calm     80% 0 in 114 W/m2
13:29 41 °F 35.1 °F 30.2 in Calm     79.4% 0 in 116 W/m2
13:34 41 °F 35.2 °F 30.2 in Calm     80% 0 in 109 W/m2
13:39 41 °F 35.2 °F 30.2 in Calm     80% 0 in 105 W/m2
13:44 41.5 °F 35.8 °F 30.2 in East 0.1 mph 2.5 mph 79.6% 0 in 106 W/m2
13:49 41.5 °F 36.3 °F 30.2 in ENE 0.2 mph 2.5 mph 81.2% 0 in 107 W/m2
13:54 41.4 °F 36.1 °F 30.2 in ESE 0.2 mph 2.5 mph 81.6% 0 in 98 W/m2
13:59 41.2 °F 35.6 °F 30.2 in Calm     80.4% 0 in 102 W/m2
14:04 41.5 °F 35.8 °F 30.2 in Calm   2.5 mph 80.1% 0 in 106 W/m2
14:09 41.5 °F 36 °F 30.2 in Calm   2.5 mph 80.6% 0 in 106 W/m2
14:14 41.4 °F 36 °F 30.2 in East 0.1 mph 2.5 mph 81% 0 in 94 W/m2
14:19 41.4 °F 36 °F 30.2 in ENE 0.2 mph 7.6 mph 81.1% 0 in 88 W/m2
14:24 40.6 °F 35.4 °F 30.2 in Calm   7.6 mph 81.6% 0 in 86 W/m2
14:29 40.6 °F 35.4 °F 30.2 in Calm   2.5 mph 81.7% 0 in 87 W/m2
14:34 40.6 °F 35.6 °F 30.2 in ENE 0.1 mph 2.5 mph 82% 0 in 86 W/m2
14:39 40.6 °F 35.6 °F 30.2 in Calm   2.5 mph 82% 0 in 84 W/m2
14:44 40.5 °F 35.2 °F 30.2 in ENE 0.1 mph 4.9 mph 81.9% 0 in 84 W/m2
14:49 40.3 °F 35.1 °F 30.2 in Calm     81.3% 0 in 83 W/m2
14:54 40.5 °F 35.1 °F 30.2 in Calm     81% 0 in 83 W/m2
14:59 40.6 °F 35.4 °F 30.2 in Calm   2.5 mph 81.6% 0 in 84 W/m2
15:04 41 °F 35.6 °F 30.2 in Calm     81.1% 0 in 83 W/m2
15:09 41 °F 35.6 °F 30.2 in Calm     81% 0 in 81 W/m2
15:14 40.8 °F 35.8 °F 30.2 in East 0.6 mph 4.9 mph 82% 0 in 75 W/m2
15:19 40.8 °F 36 °F 30.2 in ENE 0.1 mph 2.5 mph 82.3% 0 in 72 W/m2
15:24 41 °F 36.1 °F 30.2 in ESE 0.1 mph 2.5 mph 82.7% 0 in 63 W/m2
15:29 40.8 °F 36 °F 30.2 in Calm   2.5 mph 82.8% 0 in 55 W/m2
15:34 40.8 °F 36.1 °F 30.2 in NNW 0.4 mph 4.9 mph 83% 0 in 49 W/m2
15:39 40.8 °F 36.1 °F 30.2 in NE 1.2 mph 4.9 mph 83% 0 in 46 W/m2
15:44 40.6 °F 36 °F 30.2 in North 2.7 mph 7.6 mph 83.1% 0 in 46 W/m2
15:49 40.5 °F 36 °F 30.2 in NNE 0.9 mph 7.6 mph 83.9% 0 in 43 W/m2
15:54 40.5 °F 36 °F 30.2 in NNE 0.2 mph 4.9 mph 83.8% 0 in 40 W/m2
15:59 40.5 °F 36 °F 30.2 in NNW 0.6 mph 4.9 mph 84% 0 in 36 W/m2
16:04 40.5 °F 36 °F 30.2 in NNE 0.5 mph 4.9 mph 83.9% 0 in 36 W/m2
16:09 40.6 °F 36 °F 30.2 in North 0.6 mph 4.9 mph 83% 0 in 37 W/m2
16:14 40.5 °F 35.6 °F 30.2 in North 1.9 mph 10.1 mph 82.6% 0 in 34 W/m2
16:19 40.5 °F 35.6 °F 30.2 in NNE 2.1 mph 10.1 mph 82.3% 0 in 32 W/m2
16:24 40.5 °F 35.6 °F 30.2 in North 1.5 mph 4.9 mph 82.8% 0 in 33 W/m2
16:29 40.3 °F 35.6 °F 30.2 in North 3.7 mph 7.6 mph 83% 0 in 31 W/m2
16:34 40.3 °F 35.6 °F 30.2 in North 2.4 mph 7.6 mph 83.1% 0 in 29 W/m2
16:39 40.3 °F 35.6 °F 30.2 in NNW 3.4 mph 10.1 mph 83.3% 0 in 28 W/m2
16:44 40.1 °F 35.6 °F 30.3 in North 1.3 mph 7.6 mph 84% 0 in 26 W/m2
16:49 39.9 °F 35.4 °F 30.2 in NNE 1.6 mph 4.9 mph 84.1% 0 in 28 W/m2
16:54 39.9 °F 35.6 °F 30.3 in NNE 2.5 mph 7.6 mph 84.4% 0 in 27 W/m2
16:59 39.9 °F 35.8 °F 30.3 in NNE 2.4 mph 10.1 mph 85% 0 in 22 W/m2
17:04 39.7 °F 35.6 °F 30.2 in North 2.2 mph 10.1 mph 85% 0 in 17 W/m2
17:09 39.7 °F 36 °F 30.3 in NNE 3.3 mph 10.1 mph 85.9% 0 in 10 W/m2
17:14 39.6 °F 35.8 °F 30.3 in North 3.6 mph 7.6 mph 86% 0 in 6 W/m2
17:19 39.6 °F 35.8 °F 30.3 in NNW 2.7 mph 10.1 mph 85.8% 0 in 3 W/m2
17:24 39.6 °F 35.6 °F 30.3 in NNW 1.4 mph 10.1 mph 85.3% 0 in 2 W/m2
17:29 39.7 °F 36 °F 30.3 in NNW 1.2 mph 7.6 mph 85.9% 0 in 0 W/m2
17:34 39.7 °F 36 °F 30.3 in NNW 2 mph 7.6 mph 86% 0 in 0 W/m2
17:39 39.6 °F 35.8 °F 30.3 in North 1.2 mph 7.6 mph 86% 0 in 0 W/m2
17:44 39.6 °F 35.8 °F 30.3 in NNE 0.5 mph 4.9 mph 86% 0 in 0 W/m2
17:49 39.6 °F 35.8 °F 30.3 in NNW 1.2 mph 7.6 mph 86% 0 in 0 W/m2
17:54 39.6 °F 35.8 °F 30.3 in North 0.7 mph 4.9 mph 86% 0 in 0 W/m2
17:59 39.6 °F 35.8 °F 30.3 in North 0.2 mph 2.5 mph 86% 0 in 0 W/m2
18:04 39.4 °F 35.8 °F 30.3 in Calm     87% 0 in 0 W/m2
18:09 39.2 °F 35.6 °F 30.3 in Calm     87% 0 in 0 W/m2
18:14 39 °F 35.8 °F 30.3 in Calm     87.9% 0 in 0 W/m2
18:19 39 °F 35.8 °F 30.3 in Calm     88.1% 0 in 0 W/m2
18:24 38.8 °F 36 °F 30.3 in Calm     89% 0 in 0 W/m2
18:29 38.7 °F 36 °F 30.3 in Calm     89.5% 0 in 0 W/m2
18:34 38.7 °F 36.1 °F 30.3 in Calm     90.3% 0 in 0 W/m2
18:39 38.5 °F 36 °F 30.3 in Calm     90.5% 0 in 0 W/m2
18:44 38.3 °F 35.8 °F 30.3 in Calm     91% 0 in 0 W/m2
18:49 37.8 °F 35.6 °F 30.3 in Calm     91.7% 0 in 0 W/m2
18:54 37.8 °F 35.6 °F 30.3 in Calm     92% 0 in 0 W/m2
18:59 37.8 °F 35.4 °F 30.3 in Calm     91.2% 0 in 0 W/m2
19:04 37.8 °F 35.6 °F 30.3 in Calm     91.6% 0 in 0 W/m2
19:09 37.8 °F 35.4 °F 30.3 in Calm     91.2% 0 in 0 W/m2
19:14 37.6 °F 35.2 °F 30.3 in Calm     91.3% 0 in 0 W/m2
19:19 37.6 °F 35.2 °F 30.3 in Calm     91.2% 0 in 0 W/m2
19:24 37.6 °F 35.4 °F 30.3 in Calm     92% 0 in 0 W/m2
19:29 37.4 °F 35.2 °F 30.3 in Calm     92% 0 in 0 W/m2
19:34 37.4 °F 35.2 °F 30.3 in Calm     92% 0 in 0 W/m2
19:39 37.4 °F 35.1 °F 30.3 in Calm     91.4% 0 in 0 W/m2
19:44 37.4 °F 35.2 °F 30.3 in Calm     92% 0 in 0 W/m2
19:49 37.6 °F 35.4 °F 30.3 in Calm     91.7% 0 in 0 W/m2
19:54 37.6 °F 35.2 °F 30.3 in Calm     91.1% 0 in 0 W/m2
19:59 37.6 °F 35.4 °F 30.3 in Calm     92% 0 in 0 W/m2
20:04 37.6 °F 35.4 °F 30.3 in Calm     92.2% 0 in 0 W/m2
20:09 37.6 °F 35.4 °F 30.3 in Calm     91.8% 0 in 0 W/m2
20:14 37.6 °F 35.2 °F 30.4 in Calm     91.2% 0 in 0 W/m2
20:19 37.6 °F 35.2 °F 30.4 in Calm     91.4% 0 in 0 W/m2
20:24 37.6 °F 35.2 °F 30.4 in Calm     91.6% 0 in 0 W/m2
20:29 37.6 °F 35.4 °F 30.4 in Calm     91.8% 0 in 0 W/m2
20:34 37.4 °F 35.2 °F 30.4 in Calm     92% 0 in 0 W/m2
20:39 37.4 °F 35.2 °F 30.4 in Calm     92% 0 in 0 W/m2
20:44 37.4 °F 35.2 °F 30.4 in Calm     92% 0 in 0 W/m2
20:49 37.2 °F 35.2 °F 30.4 in Calm     92.6% 0 in 0 W/m2
20:54 37.2 °F 35.2 °F 30.4 in Calm     92.6% 0 in 0 W/m2
20:59 37.2 °F 35.1 °F 30.4 in Calm     92% 0 in 0 W/m2
21:04 37.2 °F 35.1 °F 30.4 in Calm     92% 0 in 0 W/m2
21:09 37.6 °F 35.4 °F 30.4 in Calm     92% 0 in 0 W/m2
21:14 37.6 °F 35.4 °F 30.4 in Calm     91.8% 0 in 0 W/m2
21:19 37.6 °F 35.2 °F 30.4 in Calm     90.9% 0 in 0 W/m2
21:24 37.6 °F 34.9 °F 30.4 in North 0.2 mph 4.9 mph 90.1% 0 in 0 W/m2
21:29 37.8 °F 35.2 °F 30.4 in NNW 0.3 mph 4.9 mph 90.5% 0 in 0 W/m2
21:34 37.8 °F 35.2 °F 30.4 in North 1.6 mph 7.6 mph 90.4% 0 in 0 W/m2
21:39 37.8 °F 35.1 °F 30.4 in North 1.1 mph 7.6 mph 90% 0 in 0 W/m2
21:44 37.8 °F 35.1 °F 30.4 in North 2.1 mph 7.6 mph 90% 0 in 0 W/m2
21:49 37.9 °F 35.1 °F 30.4 in NNE 2 mph 7.6 mph 89.1% 0 in 0 W/m2
21:54 37.8 °F 35.1 °F 30.4 in NNE 1.4 mph 7.6 mph 89.8% 0 in 0 W/m2
21:59 37.8 °F 35.1 °F 30.4 in North 0.9 mph 4.9 mph 90% 0 in 0 W/m2
22:04 37.8 °F 35.1 °F 30.4 in Calm   2.5 mph 90% 0 in 0 W/m2
22:09 37.8 °F 35.1 °F 30.4 in North 0.2 mph 4.9 mph 89.8% 0 in 0 W/m2
22:14 37.8 °F 34.9 °F 30.4 in NNE 0.4 mph 4.9 mph 89% 0 in 0 W/m2
22:19 37.6 °F 34.9 °F 30.4 in NE 0.1 mph 4.9 mph 89.6% 0 in 0 W/m2
22:24 37.6 °F 34.9 °F 30.4 in Calm     90% 0 in 0 W/m2
22:29 37.4 °F 34.7 °F 30.4 in Calm     90% 0 in 0 W/m2
22:34 37.4 °F 34.7 °F 30.4 in NNE 0.3 mph 4.9 mph 90% 0 in 0 W/m2
22:39 37.4 °F 34.7 °F 30.4 in NE 0.1 mph 4.9 mph 90% 0 in 0 W/m2
22:44 37.4 °F 34.7 °F 30.4 in Calm   2.5 mph 89.8% 0 in 0 W/m2
22:49 37.4 °F 34.5 °F 30.4 in Calm     89.4% 0 in 0 W/m2
22:54 37.4 °F 34.7 °F 30.4 in Calm     90% 0 in 0 W/m2
22:59 37.4 °F 34.7 °F 30.4 in Calm     89.6% 0 in 0 W/m2
23:04 37.4 °F 34.7 °F 30.4 in Calm     89.8% 0 in 0 W/m2
23:09 37.4 °F 34.5 °F 30.4 in Calm     89% 0 in 0 W/m2
23:14 37.4 °F 34.5 °F 30.5 in Calm     89% 0 in 0 W/m2
23:19 37.4 °F 34.5 °F 30.5 in ESE 0.2 mph 4.9 mph 88.8% 0 in 0 W/m2
23:24 37.4 °F 34.2 °F 30.4 in Calm   2.5 mph 88% 0 in 0 W/m2
23:29 37.2 °F 34.2 °F 30.5 in Calm     88.3% 0 in 0 W/m2
23:34 37.2 °F 34.3 °F 30.5 in Calm   2.5 mph 89% 0 in 0 W/m2
23:39 37.2 °F 34.3 °F 30.5 in Calm     89.1% 0 in 0 W/m2
23:44 37.2 °F 34.3 °F 30.5 in Calm   2.5 mph 89.4% 0 in 0 W/m2
23:49 36.9 °F 34.2 °F 30.5 in Calm     89.4% 0 in 0 W/m2
23:54 36.7 °F 34.2 °F 30.5 in Calm     90.4% 0 in 0 W/m2
23:59 36.7 °F 34.3 °F 30.5 in Calm     91.4% 0 in 0 W/m2
Juneau County Weather
Compliments of Weather Underground - 2 mb